sensor_id;sensor_type;location;lat;lon;timestamp;P1;durP1;ratioP1;P2;durP2;ratioP2
7334;SDS011;3708;42.632;23.378;2022-08-05T00:02:05;7.73;;;3.50;;
7334;SDS011;3708;42.632;23.378;2022-08-05T00:04:32;3.45;;;3.10;;
7334;SDS011;3708;42.632;23.378;2022-08-05T00:06:59;5.20;;;3.10;;
7334;SDS011;3708;42.632;23.378;2022-08-05T00:09:26;5.43;;;3.17;;
7334;SDS011;3708;42.632;23.378;2022-08-05T00:11:55;4.70;;;2.73;;
7334;SDS011;3708;42.632;23.378;2022-08-05T00:14:22;4.55;;;3.45;;
7334;SDS011;3708;42.632;23.378;2022-08-05T00:16:49;3.70;;;3.23;;
7334;SDS011;3708;42.632;23.378;2022-08-05T00:19:16;4.77;;;3.27;;
7334;SDS011;3708;42.632;23.378;2022-08-05T00:21:43;5.07;;;3.40;;
7334;SDS011;3708;42.632;23.378;2022-08-05T00:24:10;4.20;;;2.90;;
7334;SDS011;3708;42.632;23.378;2022-08-05T00:26:37;4.63;;;3.10;;
7334;SDS011;3708;42.632;23.378;2022-08-05T00:29:06;3.43;;;2.80;;
7334;SDS011;3708;42.632;23.378;2022-08-05T00:31:33;5.63;;;3.30;;
7334;SDS011;3708;42.632;23.378;2022-08-05T00:34:00;7.33;;;3.37;;
7334;SDS011;3708;42.632;23.378;2022-08-05T00:36:28;3.73;;;3.43;;
7334;SDS011;3708;42.632;23.378;2022-08-05T00:38:55;4.70;;;3.53;;
7334;SDS011;3708;42.632;23.378;2022-08-05T00:41:26;5.83;;;3.60;;
7334;SDS011;3708;42.632;23.378;2022-08-05T00:43:54;4.60;;;3.20;;
7334;SDS011;3708;42.632;23.378;2022-08-05T00:46:23;11.30;;;8.93;;
7334;SDS011;3708;42.632;23.378;2022-08-05T00:48:51;13.73;;;11.23;;
7334;SDS011;3708;42.632;23.378;2022-08-05T00:51:18;5.87;;;5.00;;
7334;SDS011;3708;42.632;23.378;2022-08-05T00:53:46;5.03;;;3.70;;
7334;SDS011;3708;42.632;23.378;2022-08-05T00:56:13;5.33;;;3.57;;
7334;SDS011;3708;42.632;23.378;2022-08-05T00:58:41;4.37;;;3.00;;
7334;SDS011;3708;42.632;23.378;2022-08-05T01:01:09;4.07;;;3.40;;
7334;SDS011;3708;42.632;23.378;2022-08-05T01:03:38;6.10;;;2.97;;
7334;SDS011;3708;42.632;23.378;2022-08-05T01:06:05;4.57;;;3.17;;
7334;SDS011;3708;42.632;23.378;2022-08-05T01:08:33;3.30;;;3.00;;
7334;SDS011;3708;42.632;23.378;2022-08-05T01:11:03;3.27;;;2.97;;
7334;SDS011;3708;42.632;23.378;2022-08-05T01:13:35;6.07;;;3.17;;
7334;SDS011;3708;42.632;23.378;2022-08-05T01:16:09;5.03;;;2.80;;
7334;SDS011;3708;42.632;23.378;2022-08-05T01:18:41;3.40;;;3.10;;
7334;SDS011;3708;42.632;23.378;2022-08-05T01:21:19;4.00;;;3.27;;
7334;SDS011;3708;42.632;23.378;2022-08-05T01:24:00;4.43;;;3.03;;
7334;SDS011;3708;42.632;23.378;2022-08-05T01:26:56;4.90;;;3.57;;
7334;SDS011;3708;42.632;23.378;2022-08-05T01:29:30;3.87;;;3.47;;
7334;SDS011;3708;42.632;23.378;2022-08-05T01:32:03;3.43;;;3.13;;
7334;SDS011;3708;42.632;23.378;2022-08-05T01:34:33;3.53;;;3.23;;
7334;SDS011;3708;42.632;23.378;2022-08-05T01:37:04;4.57;;;3.17;;
7334;SDS011;3708;42.632;23.378;2022-08-05T01:39:35;6.30;;;3.70;;
7334;SDS011;3708;42.632;23.378;2022-08-05T01:42:04;3.63;;;3.30;;
7334;SDS011;3708;42.632;23.378;2022-08-05T01:44:36;3.67;;;2.97;;
7334;SDS011;3708;42.632;23.378;2022-08-05T01:47:04;3.23;;;2.93;;
7334;SDS011;3708;42.632;23.378;2022-08-05T01:49:33;4.57;;;3.27;;
7334;SDS011;3708;42.632;23.378;2022-08-05T01:52:02;3.40;;;3.10;;
7334;SDS011;3708;42.632;23.378;2022-08-05T01:54:31;3.87;;;3.47;;
7334;SDS011;3708;42.632;23.378;2022-08-05T01:57:02;3.87;;;3.40;;
7334;SDS011;3708;42.632;23.378;2022-08-05T01:59:31;5.17;;;3.93;;
7334;SDS011;3708;42.632;23.378;2022-08-05T02:02:01;3.60;;;3.30;;
7334;SDS011;3708;42.632;23.378;2022-08-05T02:04:29;3.93;;;3.43;;
7334;SDS011;3708;42.632;23.378;2022-08-05T02:07:00;3.97;;;3.60;;
7334;SDS011;3708;42.632;23.378;2022-08-05T02:09:27;3.77;;;3.37;;
7334;SDS011;3708;42.632;23.378;2022-08-05T02:11:57;3.40;;;3.10;;
7334;SDS011;3708;42.632;23.378;2022-08-05T02:14:29;6.83;;;3.80;;
7334;SDS011;3708;42.632;23.378;2022-08-05T02:17:01;5.10;;;3.87;;
7334;SDS011;3708;42.632;23.378;2022-08-05T02:19:34;4.00;;;3.20;;
7334;SDS011;3708;42.632;23.378;2022-08-05T02:22:04;3.97;;;3.60;;
7334;SDS011;3708;42.632;23.378;2022-08-05T02:24:39;4.73;;;3.20;;
7334;SDS011;3708;42.632;23.378;2022-08-05T02:27:10;5.20;;;3.47;;
7334;SDS011;3708;42.632;23.378;2022-08-05T02:29:38;4.00;;;3.60;;
7334;SDS011;3708;42.632;23.378;2022-08-05T02:32:10;4.57;;;3.63;;
7334;SDS011;3708;42.632;23.378;2022-08-05T02:34:38;3.33;;;3.03;;
7334;SDS011;3708;42.632;23.378;2022-08-05T02:37:07;4.13;;;3.47;;
7334;SDS011;3708;42.632;23.378;2022-08-05T02:39:36;3.80;;;3.40;;
7334;SDS011;3708;42.632;23.378;2022-08-05T02:42:05;5.63;;;3.37;;
7334;SDS011;3708;42.632;23.378;2022-08-05T02:44:34;3.70;;;3.20;;
7334;SDS011;3708;42.632;23.378;2022-08-05T02:47:03;5.93;;;3.70;;
7334;SDS011;3708;42.632;23.378;2022-08-05T02:49:35;3.87;;;3.40;;
7334;SDS011;3708;42.632;23.378;2022-08-05T02:52:06;5.67;;;4.00;;
7334;SDS011;3708;42.632;23.378;2022-08-05T02:54:36;4.00;;;3.50;;
7334;SDS011;3708;42.632;23.378;2022-08-05T02:57:06;4.13;;;3.73;;
7334;SDS011;3708;42.632;23.378;2022-08-05T02:59:35;4.70;;;3.87;;
7334;SDS011;3708;42.632;23.378;2022-08-05T03:02:03;3.87;;;3.47;;
7334;SDS011;3708;42.632;23.378;2022-08-05T03:04:31;6.20;;;3.90;;
7334;SDS011;3708;42.632;23.378;2022-08-05T03:07:00;6.80;;;3.50;;
7334;SDS011;3708;42.632;23.378;2022-08-05T03:09:27;4.30;;;3.40;;
7334;SDS011;3708;42.632;23.378;2022-08-05T03:11:55;3.83;;;3.43;;
7334;SDS011;3708;42.632;23.378;2022-08-05T03:14:22;4.60;;;3.47;;
7334;SDS011;3708;42.632;23.378;2022-08-05T03:16:49;3.73;;;3.43;;
7334;SDS011;3708;42.632;23.378;2022-08-05T03:19:16;3.63;;;3.23;;
7334;SDS011;3708;42.632;23.378;2022-08-05T03:21:43;3.63;;;3.33;;
7334;SDS011;3708;42.632;23.378;2022-08-05T03:24:12;4.93;;;3.50;;
7334;SDS011;3708;42.632;23.378;2022-08-05T03:26:39;5.70;;;3.47;;
7334;SDS011;3708;42.632;23.378;2022-08-05T03:29:06;4.10;;;3.20;;
7334;SDS011;3708;42.632;23.378;2022-08-05T03:31:33;7.80;;;3.73;;
7334;SDS011;3708;42.632;23.378;2022-08-05T03:34:00;4.13;;;3.23;;
7334;SDS011;3708;42.632;23.378;2022-08-05T03:36:27;4.93;;;3.13;;
7334;SDS011;3708;42.632;23.378;2022-08-05T03:38:54;4.23;;;3.53;;
7334;SDS011;3708;42.632;23.378;2022-08-05T03:41:23;4.57;;;3.23;;
7334;SDS011;3708;42.632;23.378;2022-08-05T03:43:50;3.70;;;3.30;;
7334;SDS011;3708;42.632;23.378;2022-08-05T03:46:17;4.53;;;3.03;;
7334;SDS011;3708;42.632;23.378;2022-08-05T03:48:44;8.07;;;4.00;;
7334;SDS011;3708;42.632;23.378;2022-08-05T03:51:12;3.80;;;3.50;;
7334;SDS011;3708;42.632;23.378;2022-08-05T03:53:44;12.00;;;3.83;;
7334;SDS011;3708;42.632;23.378;2022-08-05T03:56:16;4.13;;;3.67;;
7334;SDS011;3708;42.632;23.378;2022-08-05T03:58:54;5.10;;;3.63;;
7334;SDS011;3708;42.632;23.378;2022-08-05T04:01:23;6.23;;;3.60;;
7334;SDS011;3708;42.632;23.378;2022-08-05T04:03:52;4.57;;;3.80;;
7334;SDS011;3708;42.632;23.378;2022-08-05T04:06:21;6.47;;;3.93;;
7334;SDS011;3708;42.632;23.378;2022-08-05T04:08:49;4.33;;;3.50;;
7334;SDS011;3708;42.632;23.378;2022-08-05T04:11:17;5.23;;;3.77;;
7334;SDS011;3708;42.632;23.378;2022-08-05T04:13:45;6.23;;;3.47;;
7334;SDS011;3708;42.632;23.378;2022-08-05T04:16:14;4.50;;;3.20;;
7334;SDS011;3708;42.632;23.378;2022-08-05T04:18:43;4.37;;;3.97;;
7334;SDS011;3708;42.632;23.378;2022-08-05T04:21:10;4.40;;;3.40;;
7334;SDS011;3708;42.632;23.378;2022-08-05T04:23:38;4.03;;;3.63;;
7334;SDS011;3708;42.632;23.378;2022-08-05T04:26:05;7.23;;;3.77;;
7334;SDS011;3708;42.632;23.378;2022-08-05T04:28:32;7.07;;;4.20;;
7334;SDS011;3708;42.632;23.378;2022-08-05T04:30:59;5.80;;;4.40;;
7334;SDS011;3708;42.632;23.378;2022-08-05T04:33:27;10.17;;;5.73;;
7334;SDS011;3708;42.632;23.378;2022-08-05T04:35:55;7.40;;;5.37;;
7334;SDS011;3708;42.632;23.378;2022-08-05T04:38:22;7.93;;;4.00;;
7334;SDS011;3708;42.632;23.378;2022-08-05T04:40:50;5.90;;;4.03;;
7334;SDS011;3708;42.632;23.378;2022-08-05T04:43:19;7.03;;;4.40;;
7334;SDS011;3708;42.632;23.378;2022-08-05T04:45:46;6.10;;;4.27;;
7334;SDS011;3708;42.632;23.378;2022-08-05T04:48:13;9.53;;;5.00;;
7334;SDS011;3708;42.632;23.378;2022-08-05T04:50:43;6.33;;;4.47;;
7334;SDS011;3708;42.632;23.378;2022-08-05T04:53:12;6.37;;;4.40;;
7334;SDS011;3708;42.632;23.378;2022-08-05T04:55:40;8.60;;;4.13;;
7334;SDS011;3708;42.632;23.378;2022-08-05T04:58:08;4.43;;;4.03;;
7334;SDS011;3708;42.632;23.378;2022-08-05T05:00:36;5.63;;;4.00;;
7334;SDS011;3708;42.632;23.378;2022-08-05T05:03:04;11.07;;;4.10;;
7334;SDS011;3708;42.632;23.378;2022-08-05T05:05:32;5.57;;;4.07;;
7334;SDS011;3708;42.632;23.378;2022-08-05T05:08:03;4.53;;;4.10;;
7334;SDS011;3708;42.632;23.378;2022-08-05T05:10:36;4.33;;;3.93;;
7334;SDS011;3708;42.632;23.378;2022-08-05T05:13:06;4.80;;;4.33;;
7334;SDS011;3708;42.632;23.378;2022-08-05T05:15:33;11.70;;;4.17;;
7334;SDS011;3708;42.632;23.378;2022-08-05T05:18:00;6.63;;;3.97;;
7334;SDS011;3708;42.632;23.378;2022-08-05T05:20:27;5.23;;;3.63;;
7334;SDS011;3708;42.632;23.378;2022-08-05T05:22:55;3.83;;;3.40;;
7334;SDS011;3708;42.632;23.378;2022-08-05T05:25:23;6.07;;;3.30;;
7334;SDS011;3708;42.632;23.378;2022-08-05T05:27:51;5.55;;;3.97;;
7334;SDS011;3708;42.632;23.378;2022-08-05T05:30:19;7.80;;;3.53;;
7334;SDS011;3708;42.632;23.378;2022-08-05T05:32:48;4.95;;;4.40;;
7334;SDS011;3708;42.632;23.378;2022-08-05T05:35:16;3.70;;;3.40;;
7334;SDS011;3708;42.632;23.378;2022-08-05T05:37:47;6.10;;;4.40;;
7334;SDS011;3708;42.632;23.378;2022-08-05T05:40:14;8.88;;;4.38;;
7334;SDS011;3708;42.632;23.378;2022-08-05T05:42:43;5.03;;;4.13;;
7334;SDS011;3708;42.632;23.378;2022-08-05T05:45:10;4.88;;;3.95;;
7334;SDS011;3708;42.632;23.378;2022-08-05T05:47:37;6.28;;;4.47;;
7334;SDS011;3708;42.632;23.378;2022-08-05T05:50:05;7.20;;;4.03;;
7334;SDS011;3708;42.632;23.378;2022-08-05T05:52:33;6.13;;;4.20;;
7334;SDS011;3708;42.632;23.378;2022-08-05T05:57:35;6.82;;;4.45;;
7334;SDS011;3708;42.632;23.378;2022-08-05T06:00:11;6.35;;;4.25;;
7334;SDS011;3708;42.632;23.378;2022-08-05T06:02:39;5.50;;;4.13;;
7334;SDS011;3708;42.632;23.378;2022-08-05T06:05:07;12.27;;;4.50;;
7334;SDS011;3708;42.632;23.378;2022-08-05T06:07:35;5.78;;;4.03;;
7334;SDS011;3708;42.632;23.378;2022-08-05T06:10:02;6.78;;;4.80;;
7334;SDS011;3708;42.632;23.378;2022-08-05T06:12:30;6.72;;;4.45;;
7334;SDS011;3708;42.632;23.378;2022-08-05T06:14:57;6.22;;;4.25;;
7334;SDS011;3708;42.632;23.378;2022-08-05T06:17:27;4.63;;;4.20;;
7334;SDS011;3708;42.632;23.378;2022-08-05T06:19:59;4.90;;;4.22;;
7334;SDS011;3708;42.632;23.378;2022-08-05T06:22:34;7.68;;;4.35;;
7334;SDS011;3708;42.632;23.378;2022-08-05T06:25:02;5.05;;;4.05;;
7334;SDS011;3708;42.632;23.378;2022-08-05T06:27:32;5.03;;;4.28;;
7334;SDS011;3708;42.632;23.378;2022-08-05T06:29:59;4.82;;;4.30;;
7334;SDS011;3708;42.632;23.378;2022-08-05T06:32:27;5.32;;;3.72;;
7334;SDS011;3708;42.632;23.378;2022-08-05T06:34:55;5.20;;;4.25;;
7334;SDS011;3708;42.632;23.378;2022-08-05T06:37:23;7.15;;;4.18;;
7334;SDS011;3708;42.632;23.378;2022-08-05T06:39:51;6.65;;;4.30;;
7334;SDS011;3708;42.632;23.378;2022-08-05T06:42:18;6.88;;;4.03;;
7334;SDS011;3708;42.632;23.378;2022-08-05T06:44:45;4.72;;;4.22;;
7334;SDS011;3708;42.632;23.378;2022-08-05T06:47:12;11.13;;;4.25;;
7334;SDS011;3708;42.632;23.378;2022-08-05T06:49:40;4.63;;;3.83;;
7334;SDS011;3708;42.632;23.378;2022-08-05T06:52:07;7.60;;;4.30;;
7334;SDS011;3708;42.632;23.378;2022-08-05T06:54:34;5.10;;;4.55;;
7334;SDS011;3708;42.632;23.378;2022-08-05T06:57:01;10.82;;;5.22;;
7334;SDS011;3708;42.632;23.378;2022-08-05T06:59:29;6.80;;;4.50;;
7334;SDS011;3708;42.632;23.378;2022-08-05T07:01:57;5.28;;;4.15;;
7334;SDS011;3708;42.632;23.378;2022-08-05T07:04:32;14.07;;;4.38;;
7334;SDS011;3708;42.632;23.378;2022-08-05T07:07:08;5.25;;;4.00;;
7334;SDS011;3708;42.632;23.378;2022-08-05T07:09:35;5.97;;;3.88;;
7334;SDS011;3708;42.632;23.378;2022-08-05T07:12:03;8.95;;;4.40;;
7334;SDS011;3708;42.632;23.378;2022-08-05T07:14:30;4.28;;;3.70;;
7334;SDS011;3708;42.632;23.378;2022-08-05T07:17:25;6.43;;;3.47;;
7334;SDS011;3708;42.632;23.378;2022-08-05T07:19:53;11.38;;;3.92;;
7334;SDS011;3708;42.632;23.378;2022-08-05T07:22:22;5.68;;;3.95;;
7334;SDS011;3708;42.632;23.378;2022-08-05T07:24:49;4.43;;;3.80;;
7334;SDS011;3708;42.632;23.378;2022-08-05T07:27:16;6.60;;;3.80;;
7334;SDS011;3708;42.632;23.378;2022-08-05T07:29:43;5.82;;;3.83;;
7334;SDS011;3708;42.632;23.378;2022-08-05T07:32:10;4.93;;;3.75;;
7334;SDS011;3708;42.632;23.378;2022-08-05T07:34:37;3.80;;;3.40;;
7334;SDS011;3708;42.632;23.378;2022-08-05T07:37:04;8.52;;;3.80;;
7334;SDS011;3708;42.632;23.378;2022-08-05T07:39:32;7.93;;;4.28;;
7334;SDS011;3708;42.632;23.378;2022-08-05T07:41:59;8.85;;;3.80;;
7334;SDS011;3708;42.632;23.378;2022-08-05T07:44:26;4.18;;;3.35;;
7334;SDS011;3708;42.632;23.378;2022-08-05T07:46:53;8.43;;;3.95;;
7334;SDS011;3708;42.632;23.378;2022-08-05T07:49:20;3.72;;;3.15;;
7334;SDS011;3708;42.632;23.378;2022-08-05T07:51:49;5.53;;;4.07;;
7334;SDS011;3708;42.632;23.378;2022-08-05T07:54:20;6.25;;;4.32;;
7334;SDS011;3708;42.632;23.378;2022-08-05T07:56:52;10.50;;;3.83;;
7334;SDS011;3708;42.632;23.378;2022-08-05T07:59:19;11.70;;;4.25;;
7334;SDS011;3708;42.632;23.378;2022-08-05T08:01:46;6.07;;;4.07;;
7334;SDS011;3708;42.632;23.378;2022-08-05T08:04:13;6.57;;;4.65;;
7334;SDS011;3708;42.632;23.378;2022-08-05T08:06:41;10.00;;;4.70;;
7334;SDS011;3708;42.632;23.378;2022-08-05T08:09:08;4.50;;;4.10;;
7334;SDS011;3708;42.632;23.378;2022-08-05T08:11:35;6.80;;;4.28;;
7334;SDS011;3708;42.632;23.378;2022-08-05T08:14:04;5.60;;;4.50;;
7334;SDS011;3708;42.632;23.378;2022-08-05T08:16:30;4.35;;;3.63;;
7334;SDS011;3708;42.632;23.378;2022-08-05T08:18:58;6.70;;;3.88;;
7334;SDS011;3708;42.632;23.378;2022-08-05T08:21:25;4.70;;;3.88;;
7334;SDS011;3708;42.632;23.378;2022-08-05T08:23:53;8.07;;;4.30;;
7334;SDS011;3708;42.632;23.378;2022-08-05T08:26:20;4.68;;;4.10;;
7334;SDS011;3708;42.632;23.378;2022-08-05T08:28:47;5.53;;;4.00;;
7334;SDS011;3708;42.632;23.378;2022-08-05T08:31:15;5.03;;;3.97;;
7334;SDS011;3708;42.632;23.378;2022-08-05T08:33:44;8.27;;;4.80;;
7334;SDS011;3708;42.632;23.378;2022-08-05T08:36:11;4.80;;;4.00;;
7334;SDS011;3708;42.632;23.378;2022-08-05T08:38:38;8.65;;;4.28;;
7334;SDS011;3708;42.632;23.378;2022-08-05T08:41:05;9.00;;;4.50;;
7334;SDS011;3708;42.632;23.378;2022-08-05T08:43:36;11.75;;;4.20;;
7334;SDS011;3708;42.632;23.378;2022-08-05T08:46:03;4.07;;;3.67;;
7334;SDS011;3708;42.632;23.378;2022-08-05T08:48:33;6.90;;;4.03;;
7334;SDS011;3708;42.632;23.378;2022-08-05T08:51:00;5.60;;;3.75;;
7334;SDS011;3708;42.632;23.378;2022-08-05T08:53:32;5.10;;;3.25;;
7334;SDS011;3708;42.632;23.378;2022-08-05T08:56:02;8.93;;;3.35;;
7334;SDS011;3708;42.632;23.378;2022-08-05T08:58:30;4.45;;;3.25;;
7334;SDS011;3708;42.632;23.378;2022-08-05T09:00:58;6.90;;;3.15;;
7334;SDS011;3708;42.632;23.378;2022-08-05T09:03:25;7.95;;;2.90;;
7334;SDS011;3708;42.632;23.378;2022-08-05T09:05:55;4.78;;;3.50;;
7334;SDS011;3708;42.632;23.378;2022-08-05T09:08:22;4.53;;;3.17;;
7334;SDS011;3708;42.632;23.378;2022-08-05T09:10:50;5.70;;;3.15;;
7334;SDS011;3708;42.632;23.378;2022-08-05T09:13:17;5.55;;;3.50;;
7334;SDS011;3708;42.632;23.378;2022-08-05T09:16:05;6.07;;;2.90;;
7334;SDS011;3708;42.632;23.378;2022-08-05T09:18:35;4.63;;;2.80;;
7334;SDS011;3708;42.632;23.378;2022-08-05T09:21:05;3.63;;;2.25;;
7334;SDS011;3708;42.632;23.378;2022-08-05T09:23:32;3.38;;;2.53;;
7334;SDS011;3708;42.632;23.378;2022-08-05T09:26:06;5.88;;;2.75;;
7334;SDS011;3708;42.632;23.378;2022-08-05T09:28:35;4.30;;;2.65;;
7334;SDS011;3708;42.632;23.378;2022-08-05T09:31:04;3.38;;;2.42;;
7334;SDS011;3708;42.632;23.378;2022-08-05T09:33:47;2.38;;;2.17;;
7334;SDS011;3708;42.632;23.378;2022-08-05T09:36:17;5.95;;;2.90;;
7334;SDS011;3708;42.632;23.378;2022-08-05T09:38:57;2.88;;;2.17;;
7334;SDS011;3708;42.632;23.378;2022-08-05T09:41:25;6.88;;;2.70;;
7334;SDS011;3708;42.632;23.378;2022-08-05T09:44:00;4.68;;;2.92;;
7334;SDS011;3708;42.632;23.378;2022-08-05T09:46:29;3.60;;;2.80;;
7334;SDS011;3708;42.632;23.378;2022-08-05T09:48:59;3.70;;;2.60;;
7334;SDS011;3708;42.632;23.378;2022-08-05T09:51:31;2.78;;;2.47;;
7334;SDS011;3708;42.632;23.378;2022-08-05T09:53:59;6.50;;;2.50;;
7334;SDS011;3708;42.632;23.378;2022-08-05T09:56:29;3.90;;;2.83;;
7334;SDS011;3708;42.632;23.378;2022-08-05T09:58:59;6.57;;;2.40;;
7334;SDS011;3708;42.632;23.378;2022-08-05T10:01:29;4.07;;;2.63;;
7334;SDS011;3708;42.632;23.378;2022-08-05T10:03:58;4.95;;;2.70;;
7334;SDS011;3708;42.632;23.378;2022-08-05T10:06:28;4.25;;;2.92;;
7334;SDS011;3708;42.632;23.378;2022-08-05T10:09:08;3.00;;;2.55;;
7334;SDS011;3708;42.632;23.378;2022-08-05T10:11:37;5.57;;;2.67;;
7334;SDS011;3708;42.632;23.378;2022-08-05T10:14:19;2.83;;;2.58;;
7334;SDS011;3708;42.632;23.378;2022-08-05T10:16:47;3.25;;;2.70;;
7334;SDS011;3708;42.632;23.378;2022-08-05T10:19:15;4.43;;;2.90;;
7334;SDS011;3708;42.632;23.378;2022-08-05T10:21:43;3.15;;;2.60;;
7334;SDS011;3708;42.632;23.378;2022-08-05T10:24:14;6.85;;;2.95;;
7334;SDS011;3708;42.632;23.378;2022-08-05T10:26:42;5.72;;;3.35;;
7334;SDS011;3708;42.632;23.378;2022-08-05T10:29:10;5.15;;;3.63;;
7334;SDS011;3708;42.632;23.378;2022-08-05T10:31:37;5.72;;;3.00;;
7334;SDS011;3708;42.632;23.378;2022-08-05T10:34:05;2.80;;;2.55;;
7334;SDS011;3708;42.632;23.378;2022-08-05T10:36:33;6.68;;;3.20;;
7334;SDS011;3708;42.632;23.378;2022-08-05T10:39:04;3.17;;;2.80;;
7334;SDS011;3708;42.632;23.378;2022-08-05T10:41:34;4.75;;;2.97;;
7334;SDS011;3708;42.632;23.378;2022-08-05T10:44:09;3.47;;;3.08;;
7334;SDS011;3708;42.632;23.378;2022-08-05T10:46:42;7.45;;;4.43;;
7334;SDS011;3708;42.632;23.378;2022-08-05T10:49:10;4.43;;;3.35;;
7334;SDS011;3708;42.632;23.378;2022-08-05T10:51:41;6.35;;;3.53;;
7334;SDS011;3708;42.632;23.378;2022-08-05T10:54:10;3.33;;;3.00;;
7334;SDS011;3708;42.632;23.378;2022-08-05T10:56:43;8.35;;;3.08;;
7334;SDS011;3708;42.632;23.378;2022-08-05T10:59:11;5.90;;;3.15;;
7334;SDS011;3708;42.632;23.378;2022-08-05T11:01:42;3.50;;;2.92;;
7334;SDS011;3708;42.632;23.378;2022-08-05T11:04:11;4.18;;;3.00;;
7334;SDS011;3708;42.632;23.378;2022-08-05T11:09:42;3.75;;;3.22;;
7334;SDS011;3708;42.632;23.378;2022-08-05T11:15:19;5.40;;;3.10;;
7334;SDS011;3708;42.632;23.378;2022-08-05T11:17:47;8.00;;;3.13;;
7334;SDS011;3708;42.632;23.378;2022-08-05T11:20:33;3.42;;;2.63;;
7334;SDS011;3708;42.632;23.378;2022-08-05T11:26:00;6.15;;;3.17;;
7334;SDS011;3708;42.632;23.378;2022-08-05T11:28:39;5.43;;;2.95;;
7334;SDS011;3708;42.632;23.378;2022-08-05T11:31:17;3.65;;;2.63;;
7334;SDS011;3708;42.632;23.378;2022-08-05T11:33:52;5.72;;;2.40;;
7334;SDS011;3708;42.632;23.378;2022-08-05T11:36:40;3.40;;;3.00;;
7334;SDS011;3708;42.632;23.378;2022-08-05T11:39:11;3.50;;;3.20;;
7334;SDS011;3708;42.632;23.378;2022-08-05T11:41:43;12.05;;;3.03;;
7334;SDS011;3708;42.632;23.378;2022-08-05T11:44:16;6.68;;;3.00;;
7334;SDS011;3708;42.632;23.378;2022-08-05T11:46:46;3.17;;;2.85;;
7334;SDS011;3708;42.632;23.378;2022-08-05T11:49:15;6.32;;;3.20;;
7334;SDS011;3708;42.632;23.378;2022-08-05T11:51:45;4.57;;;3.17;;
7334;SDS011;3708;42.632;23.378;2022-08-05T11:54:14;4.28;;;3.13;;
7334;SDS011;3708;42.632;23.378;2022-08-05T11:56:51;4.25;;;2.90;;
7334;SDS011;3708;42.632;23.378;2022-08-05T11:59:19;5.07;;;2.95;;
7334;SDS011;3708;42.632;23.378;2022-08-05T12:01:51;4.78;;;3.40;;
7334;SDS011;3708;42.632;23.378;2022-08-05T12:04:19;21.92;;;8.20;;
7334;SDS011;3708;42.632;23.378;2022-08-05T12:06:47;5.65;;;3.80;;
7334;SDS011;3708;42.632;23.378;2022-08-05T12:09:16;14.68;;;6.78;;
7334;SDS011;3708;42.632;23.378;2022-08-05T12:11:47;22.17;;;9.63;;
7334;SDS011;3708;42.632;23.378;2022-08-05T12:14:16;14.35;;;6.18;;
7334;SDS011;3708;42.632;23.378;2022-08-05T12:16:43;23.73;;;9.27;;
7334;SDS011;3708;42.632;23.378;2022-08-05T12:19:15;6.50;;;3.25;;
7334;SDS011;3708;42.632;23.378;2022-08-05T12:21:45;3.25;;;2.88;;
7334;SDS011;3708;42.632;23.378;2022-08-05T12:24:14;9.85;;;5.90;;
7334;SDS011;3708;42.632;23.378;2022-08-05T12:26:44;8.57;;;4.88;;
7334;SDS011;3708;42.632;23.378;2022-08-05T12:29:13;5.78;;;3.45;;
7334;SDS011;3708;42.632;23.378;2022-08-05T12:31:44;5.07;;;3.00;;
7334;SDS011;3708;42.632;23.378;2022-08-05T12:34:12;3.90;;;3.22;;
7334;SDS011;3708;42.632;23.378;2022-08-05T12:36:40;5.22;;;3.40;;
7334;SDS011;3708;42.632;23.378;2022-08-05T12:39:08;4.35;;;3.10;;
7334;SDS011;3708;42.632;23.378;2022-08-05T12:41:37;4.15;;;2.72;;
7334;SDS011;3708;42.632;23.378;2022-08-05T12:44:05;5.03;;;3.33;;
7334;SDS011;3708;42.632;23.378;2022-08-05T12:46:50;7.90;;;3.15;;
7334;SDS011;3708;42.632;23.378;2022-08-05T12:49:23;4.43;;;3.35;;
7334;SDS011;3708;42.632;23.378;2022-08-05T12:51:50;3.75;;;3.40;;
7334;SDS011;3708;42.632;23.378;2022-08-05T12:54:19;3.20;;;2.90;;
7334;SDS011;3708;42.632;23.378;2022-08-05T12:56:48;7.20;;;3.20;;
7334;SDS011;3708;42.632;23.378;2022-08-05T12:59:17;6.78;;;3.17;;
7334;SDS011;3708;42.632;23.378;2022-08-05T13:01:52;5.70;;;3.22;;
7334;SDS011;3708;42.632;23.378;2022-08-05T13:04:24;6.22;;;3.80;;
7334;SDS011;3708;42.632;23.378;2022-08-05T13:06:51;9.68;;;3.80;;
7334;SDS011;3708;42.632;23.378;2022-08-05T13:09:19;11.50;;;3.72;;
7334;SDS011;3708;42.632;23.378;2022-08-05T13:11:48;9.55;;;3.92;;
7334;SDS011;3708;42.632;23.378;2022-08-05T13:14:19;6.25;;;3.15;;
7334;SDS011;3708;42.632;23.378;2022-08-05T13:16:50;4.30;;;3.17;;
7334;SDS011;3708;42.632;23.378;2022-08-05T13:19:20;4.50;;;2.83;;
7334;SDS011;3708;42.632;23.378;2022-08-05T13:21:49;7.38;;;3.80;;
7334;SDS011;3708;42.632;23.378;2022-08-05T13:24:17;4.53;;;3.33;;
7334;SDS011;3708;42.632;23.378;2022-08-05T13:26:45;5.05;;;3.60;;
7334;SDS011;3708;42.632;23.378;2022-08-05T13:29:13;5.78;;;3.17;;
7334;SDS011;3708;42.632;23.378;2022-08-05T13:31:41;5.50;;;3.28;;
7334;SDS011;3708;42.632;23.378;2022-08-05T13:34:10;3.85;;;3.40;;
7334;SDS011;3708;42.632;23.378;2022-08-05T13:36:38;6.80;;;3.42;;
7334;SDS011;3708;42.632;23.378;2022-08-05T13:39:06;6.38;;;3.42;;
7334;SDS011;3708;42.632;23.378;2022-08-05T13:41:33;4.40;;;3.58;;
7334;SDS011;3708;42.632;23.378;2022-08-05T13:44:01;3.08;;;2.78;;
7334;SDS011;3708;42.632;23.378;2022-08-05T13:46:28;4.22;;;2.95;;
7334;SDS011;3708;42.632;23.378;2022-08-05T13:48:55;5.50;;;3.17;;
7334;SDS011;3708;42.632;23.378;2022-08-05T13:51:31;5.13;;;3.28;;
7334;SDS011;3708;42.632;23.378;2022-08-05T13:53:58;3.95;;;3.10;;
7334;SDS011;3708;42.632;23.378;2022-08-05T13:56:25;3.05;;;2.65;;
7334;SDS011;3708;42.632;23.378;2022-08-05T13:58:52;4.43;;;3.03;;
7334;SDS011;3708;42.632;23.378;2022-08-05T14:01:20;4.03;;;3.10;;
7334;SDS011;3708;42.632;23.378;2022-08-05T14:03:47;5.18;;;2.80;;
7334;SDS011;3708;42.632;23.378;2022-08-05T14:06:28;5.90;;;3.00;;
7334;SDS011;3708;42.632;23.378;2022-08-05T14:08:56;4.82;;;2.97;;
7334;SDS011;3708;42.632;23.378;2022-08-05T14:11:24;3.20;;;2.80;;
7334;SDS011;3708;42.632;23.378;2022-08-05T14:13:52;4.10;;;2.63;;
7334;SDS011;3708;42.632;23.378;2022-08-05T14:16:19;3.30;;;2.95;;
7334;SDS011;3708;42.632;23.378;2022-08-05T14:18:46;3.08;;;2.80;;
7334;SDS011;3708;42.632;23.378;2022-08-05T14:21:13;4.72;;;2.70;;
7334;SDS011;3708;42.632;23.378;2022-08-05T14:23:40;5.93;;;2.95;;
7334;SDS011;3708;42.632;23.378;2022-08-05T14:26:09;3.38;;;2.70;;
7334;SDS011;3708;42.632;23.378;2022-08-05T14:28:36;6.47;;;2.80;;
7334;SDS011;3708;42.632;23.378;2022-08-05T14:31:03;10.23;;;3.75;;
7334;SDS011;3708;42.632;23.378;2022-08-05T14:33:30;6.80;;;3.17;;
7334;SDS011;3708;42.632;23.378;2022-08-05T14:35:57;4.10;;;2.97;;
7334;SDS011;3708;42.632;23.378;2022-08-05T14:38:25;2.70;;;2.50;;
7334;SDS011;3708;42.632;23.378;2022-08-05T14:40:52;3.72;;;3.00;;
7334;SDS011;3708;42.632;23.378;2022-08-05T14:43:21;3.03;;;2.72;;
7334;SDS011;3708;42.632;23.378;2022-08-05T14:45:48;5.43;;;2.78;;
7334;SDS011;3708;42.632;23.378;2022-08-05T14:48:15;2.72;;;2.50;;
7334;SDS011;3708;42.632;23.378;2022-08-05T14:50:42;4.80;;;2.88;;
7334;SDS011;3708;42.632;23.378;2022-08-05T14:53:09;3.05;;;2.67;;
7334;SDS011;3708;42.632;23.378;2022-08-05T14:55:36;5.97;;;2.88;;
7334;SDS011;3708;42.632;23.378;2022-08-05T14:58:09;3.47;;;2.80;;
7334;SDS011;3708;42.632;23.378;2022-08-05T15:00:38;2.95;;;2.70;;
7334;SDS011;3708;42.632;23.378;2022-08-05T15:03:06;3.00;;;2.70;;
7334;SDS011;3708;42.632;23.378;2022-08-05T15:05:33;3.40;;;2.90;;
7334;SDS011;3708;42.632;23.378;2022-08-05T15:08:00;2.88;;;2.45;;
7334;SDS011;3708;42.632;23.378;2022-08-05T15:10:27;4.47;;;2.67;;
7334;SDS011;3708;42.632;23.378;2022-08-05T15:12:55;7.80;;;2.50;;
7334;SDS011;3708;42.632;23.378;2022-08-05T15:15:24;2.60;;;2.40;;
7334;SDS011;3708;42.632;23.378;2022-08-05T15:17:52;6.85;;;2.97;;
7334;SDS011;3708;42.632;23.378;2022-08-05T15:20:19;6.28;;;2.30;;
7334;SDS011;3708;42.632;23.378;2022-08-05T15:22:48;6.32;;;2.78;;
7334;SDS011;3708;42.632;23.378;2022-08-05T15:25:15;5.28;;;2.90;;